Crane, TX (79731)

8:40 PM CDT on July 25, 2016 (GMT -0500)
McCamey Middle School | | Change Station

Elev 2438 ft 31.13 °N, 102.22 °W | Updated 1 minute ago

Clear
Clear
95.4 °F
Feels Like 97 °F
N
11.4
Wind Variable Wind from East
Gusts 15.0 mph

Today
High -- | Low -- °F
--% Chance of Precip.
Yesterday
High -- | Low -- °F
Precip. -- in
Pressure 29.81 in
Visibility 10.0 miles
Clouds Clear
Heat Index 97 °F
Dew Point 64 °F
Humidity 35%
Rainfall 0.00 in
Snow Depth Not available.
7:01 AM 8:49 PM
Waning Gibbous, 60% visible
METAR KODO 260053Z AUTO 12013KT 10SM CLR 36/13 A2998 RMK AO2 SLP093 T03560133
Pressure 29.81 in
Visibility 10.0 miles
Clouds Clear
Heat Index 97 °F
Dew Point 64 °F
Humidity 35%
Rainfall 0.00 in
Snow Depth Not available.
7:01 AM 8:49 PM
Waning Gibbous, 60% visible
METAR KODO 260053Z AUTO 12013KT 10SM CLR 36/13 A2998 RMK AO2 SLP093 T03560133

10-Day Weather Forecast

Almanac

Astronomy

Jul. 25, 2016 Rise Set
Actual Time
Civil Twilight
Nautical Twilight
Astronomical Twilight
Moon
Length of Visible Light
Length of Day
Tomorrow will be .
, % of the Moon is Illuminated

Today's Extremes

State Highs State Lows

Community

WunderPhotos

Upload Photos

1,927,489 photos uploaded!

WunderBlog® & News

Nearby

Air Quality

  Air Quality AQ Index Pollutant
Not available.

Snow Depth

Station Depth Elevation

Earthquake Activity

City Distance Mag. Time & Date
Minimum magnitude displayed is 2.5.

Coastal Water Temperatures

Place Temperature

Stations

Nearby Weather Stations

Station Location Temp. Windchill Dew Point Humidity Wind Precip. Elev Updated Type
                   

Watches & Warnings

There are currently no watches in effect.